Сосново-Озерское

Карта отелей и гостиниц, располагающихся рядом с аэропортом Сосново-Озерское :

Сосново-Озерское Бурятия 52° 31' 20.4888" N, 111° 33' 56.3112" E
Код аэродрома ИКАО
UIUS
Код аэродрома RU
УИУС
Координаты
N52.52236° E111.56564°
Превышение над уровнем моря
953
Основная полоса
06/24
Курс магнитный
055/235
Длина основной ВПП
1624
Ширина основной ВПП
40
Покрытие основной ВПП
Твёрдое (асфальт)
Освещение ВПП
Нет
Тип: 
Аэродром
Класс аэродрома: 
Принадлежность: 
ГА
Статус: 
Недействующий
Сайт: 
E-mail аэродрома: 
Страна: 
Россия
Регион: 
Бурятия
Город: 
Дополнительная информация: 
Горный. В летнее время базируются АН-2 авиалесоохраны. Посадка легких самолетов возможна.

Найти трансфер

С помощью этой формы Вы можете найти трансфер из аэропорта Сосново-Озерское в город, аэропорт или вокзал:

Карта места

Javascript is required to view this map.

Погода в аэропортах:

Авиационная погода в Полярном

Регион: 
Погода METAR: 
UERP 171600Z 29003MPS 4000 -SN BKN008 OVC100 M02/M02 Q1014 RMK QFE716
Время наблюдения
2021-09-17T16:00:00Z
Температура C
-2.0
Точка росы
-2.0
Направление ветра
290
Скорость ветра (узлы)
6
Метео видимость
2.49
Явления погоды
-SN
Условия полета
IFR
Аэропорт подробнее: 

Авиационная погода в Кутаиси

Регион: 
Погода METAR: 
UGKO 171530Z VRB02KT 9999 -SHRA FEW013 SCT023CB BKN030 19/18 Q1015 R25/19//60 NOSIG
Время наблюдения
2021-09-17T15:30:00Z
Температура C
19.0
Точка росы
18.0
Направление ветра
0
Скорость ветра (узлы)
2
Метео видимость
6.21
Явления погоды
-SHRA
Условия полета
MVFR

Авиационная погода в Толмачево

Регион: 
Погода METAR: 
UNNT 171530Z 28004MPS 9999 -SHRA BKN060CB 17/09 Q0997 R25/290160 R34/////// NOSIG RMK QFE738/0984
Время наблюдения
2021-09-17T15:30:00Z
Температура C
17.0
Точка росы
9.0
Направление ветра
280
Скорость ветра (узлы)
8
Метео видимость
6.21
Явления погоды
-SHRA
Условия полета
VFR
Аэропорт подробнее: 

Авиационная погода в Закаталы

Регион: 
Погода METAR: 
UBBY 171600Z 09008KT 9999 VCTS SCT035CB OVC080 20/17 Q1017 R33/////// NOSIG RMK MT OBSC
Время наблюдения
2021-09-17T16:00:00Z
Температура C
20.0
Точка росы
17.0
Направление ветра
90
Скорость ветра (узлы)
8
Метео видимость
6.21
Явления погоды
VCTS
Условия полета
VFR